Huachuca City, AZ (85616)

09:01 PM MST del 18 Settembre 2014 (GMT -0700)
Lower Huachuca City | Change Station
CLOSE
Current Station
Stazione meteo personale
Location: Huachuca City, AZ
Altitudine: 4251 ft
Stazioni meteo nelle vicinanze
Avvisi attivi: Areal Flood Warning, Areal Flood Advisory Notifica attiva: Record Report

Alt. 4251 ft 31.64 °N, 110.34 °W | Updated 2 seconds ago

Coperto
Coperto
69.1 °F
Sembra 69.1 °F
N
0.0
Vento Variabile Vento da Nord
Gusts 0.0 mph

Oggi
Massima -- | Minima -- °F
--% Possibilità di precip.
Ieri
Massima -- | Minima -- °F
Precip. -- in
6:07 AM 6:23 PM
Luna calante, 22% visible
Pressione 29.88 in
Visibilità 10.0 miglia
Nuvole Nubi sparse 3300 ft
Coperto 5500 ft
Punto di rugiada 63 °F
Umidità 82%
Piovosità 0.41 in
Spessore del manto nevoso 0 in , 1 in , 0 in
Raggi UV 0 fuori da 12
Polline .90 fuori da 12
Qualità dell'aria Non disponibile.
Flu Activity Non disponibile.
METAR KFHU 190355Z 00000KT 10SM SCT033 OVC055 21/18 A3002 RMK SLP116

More Conditions Fewer Conditions

Pressione 29.88 in
Visibilità 10.0 miglia
Nuvole Nubi sparse 3300 ft
Coperto 5500 ft
Punto di rugiada 63 °F
Umidità 82%
Piovosità 0.41 in
Spessore del manto nevoso 0 in , 1 in , 0 in
Raggi UV 0 fuori da 12
Polline .90 fuori da 12
Qualità dell'aria Non disponibile.
Flu Activity Non disponibile.
METAR KFHU 190355Z 00000KT 10SM SCT033 OVC055 21/18 A3002 RMK SLP116

More Conditions Fewer Conditions

10-Day Weather Forecast

Almanac

Astronomia

Sep. 18, 2014 Alba Tramonto
Ora attuale 06:07 MST 18:23 MST
Crepuscolo civile 05:42 MST 18:47 MST
Crepuscolo nautico 05:14 MST 19:15 MST
Crepuscolo astronomico 04:45 MST 19:44 MST
Luna 01:16 MST (9/18) 15:03 MST (9/18)
Estensione della luce visibile 13h 04m
Lunghezza del giorno
12h 15m
Tomorrow will be 1m 54s shorter.
Luna calante, 22% of the Moon is Illuminated
Set 19
Luna calante
Set 24
Nuovo
Ott 1
Primo quarto
Ott 8
Luna piena
Ott 15
Ultimo quarto

Gli estremi di oggi

State Highs State Lows

Community

WunderPhotos

Upload Photos

1,754,556 foto caricate!

Nearby

Profondità neve

Stazione Profondità Altitudine
Wildcat 0 in 7850 ft
Workman Creek 1 in 6900 ft
White Horse Lake 0 in 7180 ft
Snowslide Canyon 0 in 9730 ft
Maverick Fork 0 in 9200 ft

Attività sismica

Città  Distanza Mag. Data & Ora
Non sono state riportate attività sismiche nelle vicinanze.
Minimo Magnitudo Mostrato è 2.5.

Temperature delle acque costiere

Località Temperatura
Nessun dato dalle stazioni

Stazioni meteo nelle vicinanze